createdAt,value
2023-02-23T00:01:21.671Z,99932.00
2023-02-23T00:03:49.627Z,99927.00
2023-02-23T00:06:18.480Z,99933.00
2023-02-23T00:08:47.473Z,99938.00
2023-02-23T00:11:16.638Z,99931.00
2023-02-23T00:13:45.955Z,99932.00
2023-02-23T00:16:15.978Z,99924.00
2023-02-23T00:18:49.918Z,99926.00
2023-02-23T00:21:20.142Z,99927.00
2023-02-23T00:23:52.960Z,99921.00
2023-02-23T00:26:23.072Z,99931.00
2023-02-23T00:28:52.532Z,99916.00
2023-02-23T00:31:24.721Z,99922.00
2023-02-23T00:33:53.442Z,99925.00
2023-02-23T00:36:22.601Z,99920.00
2023-02-23T00:38:53.890Z,99914.00
2023-02-23T00:41:23.390Z,99919.00
2023-02-23T00:43:54.182Z,99925.00
2023-02-23T00:46:23.415Z,99920.00
2023-02-23T00:48:51.594Z,99918.00
2023-02-23T00:51:19.503Z,99925.00
2023-02-23T00:53:47.224Z,99923.00
2023-02-23T00:56:15.623Z,99918.00
2023-02-23T00:58:43.664Z,99919.00
2023-02-23T01:01:12.841Z,99922.00
2023-02-23T01:03:41.197Z,99925.00
2023-02-23T01:06:10.375Z,99914.00
2023-02-23T01:08:39.305Z,99913.00
2023-02-23T01:11:08.719Z,99911.00
2023-02-23T01:13:36.265Z,99917.00
2023-02-23T01:16:06.363Z,99915.00
2023-02-23T01:18:34.593Z,99911.00
2023-02-23T01:21:01.863Z,99913.00
2023-02-23T01:23:29.224Z,99917.00
2023-02-23T01:25:56.632Z,99909.00
2023-02-23T01:28:26.024Z,99915.00
2023-02-23T01:30:53.400Z,99906.00
2023-02-23T01:33:21.514Z,99906.00
2023-02-23T01:35:58.054Z,99904.00
2023-02-23T01:38:25.319Z,99899.00
2023-02-23T01:40:52.605Z,99895.00
2023-02-23T01:43:25.327Z,99899.00
2023-02-23T01:45:57.410Z,99896.00
2023-02-23T01:48:38.561Z,99893.00
2023-02-23T01:51:10.984Z,99902.00
2023-02-23T01:53:43.330Z,99906.00
2023-02-23T01:56:14.017Z,99894.00
2023-02-23T01:58:45.579Z,99895.00
2023-02-23T02:01:13.491Z,99888.00
2023-02-23T02:03:44.644Z,99883.00
2023-02-23T02:06:15.602Z,99882.00
2023-02-23T02:08:46.946Z,99876.00
2023-02-23T02:11:29.956Z,99875.00
2023-02-23T02:14:01.915Z,99872.00
2023-02-23T02:16:47.485Z,99865.00
2023-02-23T02:19:57.974Z,99865.00
2023-02-23T02:22:57.949Z,99858.00
2023-02-23T02:25:41.953Z,99864.00
2023-02-23T02:28:39.322Z,99866.00
2023-02-23T02:31:49.278Z,99868.00
2023-02-23T02:34:52.536Z,99868.00
2023-02-23T02:37:37.776Z,99855.00
2023-02-23T02:40:15.319Z,99851.00
2023-02-23T02:43:09.389Z,99848.00
2023-02-23T02:45:44.018Z,99840.00
2023-02-23T02:48:21.022Z,99861.00
2023-02-23T02:50:55.197Z,99865.00
2023-02-23T02:53:28.589Z,99865.00
2023-02-23T02:56:01.404Z,99856.00
2023-02-23T02:58:28.982Z,99852.00
2023-02-23T03:01:14.745Z,99852.00
2023-02-23T03:04:03.820Z,99843.00
2023-02-23T03:06:54.011Z,99836.00
2023-02-23T03:09:47.563Z,99836.00
2023-02-23T03:12:47.769Z,99838.00
2023-02-23T03:15:45.807Z,99831.00
2023-02-23T03:18:47.047Z,99827.00
2023-02-23T03:21:39.362Z,99832.00
2023-02-23T03:24:33.492Z,99831.00
2023-02-23T03:27:22.997Z,99843.00
2023-02-23T03:30:15.855Z,99845.00
2023-02-23T03:33:08.564Z,99851.00
2023-02-23T03:36:01.751Z,99833.00
2023-02-23T03:38:51.870Z,99838.00
2023-02-23T03:41:40.945Z,99850.00
2023-02-23T03:44:32.942Z,99856.00
2023-02-23T03:47:21.671Z,99877.00
2023-02-23T03:50:08.098Z,99869.00
2023-02-23T03:52:59.540Z,99869.00
2023-02-23T03:55:48.730Z,99860.00
2023-02-23T03:58:38.073Z,99857.00
2023-02-23T04:01:27.189Z,99867.00
2023-02-23T04:04:15.276Z,99868.00
2023-02-23T04:07:04.354Z,99877.00
2023-02-23T04:09:50.590Z,99880.00
2023-02-23T04:12:43.327Z,99868.00
2023-02-23T04:15:14.076Z,99883.00
2023-02-23T04:17:42.443Z,99876.00
2023-02-23T04:20:12.095Z,99870.00
2023-02-23T04:22:39.438Z,99872.00
2023-02-23T04:25:08.282Z,99868.00
2023-02-23T04:27:35.787Z,99865.00
2023-02-23T04:30:03.488Z,99868.00
2023-02-23T04:32:30.863Z,99865.00
2023-02-23T04:34:58.902Z,99872.00
2023-02-23T04:37:26.255Z,99872.00
2023-02-23T04:39:53.525Z,99868.00
2023-02-23T04:42:20.759Z,99864.00
2023-02-23T04:44:48.069Z,99873.00
2023-02-23T04:47:16.100Z,99876.00
2023-02-23T04:49:43.676Z,99862.00
2023-02-23T04:52:11.800Z,99870.00
2023-02-23T04:54:39.364Z,99869.00
2023-02-23T04:57:07.143Z,99861.00
2023-02-23T04:59:34.727Z,99861.00
2023-02-23T05:02:02.023Z,99866.00
2023-02-23T05:04:29.407Z,99861.00
2023-02-23T05:06:56.774Z,99858.00
2023-02-23T05:09:24.915Z,99857.00
2023-02-23T05:11:52.444Z,99852.00
2023-02-23T05:14:19.795Z,99857.00
2023-02-23T05:16:47.179Z,99855.00
2023-02-23T05:19:14.433Z,99860.00
2023-02-23T05:21:41.670Z,99856.00
2023-02-23T05:24:09.302Z,99858.00
2023-02-23T05:26:37.359Z,99854.00
2023-02-23T05:29:05.865Z,99860.00
2023-02-23T05:31:33.315Z,99862.00
2023-02-23T05:34:00.625Z,99858.00
2023-02-23T05:36:27.971Z,99863.00
2023-02-23T05:38:55.291Z,99862.00
2023-02-23T05:41:23.614Z,99856.00
2023-02-23T05:43:52.954Z,99858.00
2023-02-23T05:46:23.691Z,99865.00
2023-02-23T05:48:51.572Z,99867.00
2023-02-23T05:51:19.202Z,99874.00
2023-02-23T05:53:47.464Z,99866.00
2023-02-23T05:56:19.748Z,99877.00
2023-02-23T05:58:47.314Z,99874.00
2023-02-23T06:01:16.807Z,99872.00
2023-02-23T06:03:44.447Z,99876.00
2023-02-23T06:06:12.144Z,99870.00
2023-02-23T06:08:41.398Z,99868.00
2023-02-23T06:11:09.191Z,99879.00
2023-02-23T06:13:36.506Z,99877.00
2023-02-23T06:16:04.418Z,99888.00
2023-02-23T06:18:32.415Z,99884.00
2023-02-23T06:21:00.927Z,99882.00
2023-02-23T06:23:28.848Z,99876.00
2023-02-23T06:25:56.408Z,99879.00
2023-02-23T06:28:23.726Z,99875.00
2023-02-23T06:30:52.847Z,99880.00
2023-02-23T06:33:20.696Z,99873.00
2023-02-23T06:35:48.640Z,99882.00
2023-02-23T06:38:16.370Z,99881.00
2023-02-23T06:40:43.766Z,99883.00
2023-02-23T06:43:11.301Z,99889.00
2023-02-23T06:45:38.830Z,99882.00
2023-02-23T06:48:06.670Z,99884.00
2023-02-23T06:50:33.967Z,99882.00
2023-02-23T06:53:01.896Z,99890.00
2023-02-23T06:55:29.223Z,99887.00
2023-02-23T06:57:56.450Z,99884.00
2023-02-23T07:00:24.139Z,99898.00
2023-02-23T07:02:51.447Z,99895.00
2023-02-23T07:05:18.813Z,99899.00
2023-02-23T07:07:46.292Z,99899.00
2023-02-23T07:10:14.216Z,99896.00
2023-02-23T07:12:41.586Z,99897.00
2023-02-23T07:15:10.317Z,99906.00
2023-02-23T07:17:37.752Z,99902.00
2023-02-23T07:20:05.951Z,99900.00
2023-02-23T07:22:33.513Z,99899.00
2023-02-23T07:25:00.763Z,99909.00
2023-02-23T07:27:28.725Z,99914.00
2023-02-23T07:29:55.984Z,99913.00
2023-02-23T07:32:23.446Z,99911.00
2023-02-23T07:34:52.805Z,99913.00
2023-02-23T07:37:21.351Z,99918.00
2023-02-23T07:39:48.666Z,99910.00
2023-02-23T07:42:16.002Z,99912.00
2023-02-23T07:44:44.410Z,99913.00
2023-02-23T07:47:12.150Z,99917.00
2023-02-23T07:49:39.428Z,99909.00
2023-02-23T07:52:06.708Z,99926.00
2023-02-23T07:54:34.218Z,99911.00
2023-02-23T07:57:01.492Z,99918.00
2023-02-23T07:59:28.809Z,99906.00
2023-02-23T08:01:56.744Z,99909.00
2023-02-23T08:04:24.039Z,99923.00
2023-02-23T08:06:51.357Z,99930.00
2023-02-23T08:09:18.674Z,99927.00
2023-02-23T08:11:46.000Z,99931.00
2023-02-23T08:14:13.405Z,99930.00
2023-02-23T08:16:40.767Z,99926.00
2023-02-23T08:19:09.096Z,99929.00
2023-02-23T08:21:36.354Z,99935.00
2023-02-23T08:24:04.270Z,99934.00
2023-02-23T08:26:31.617Z,99942.00
2023-02-23T08:28:58.881Z,99941.00
2023-02-23T08:31:26.934Z,99938.00
2023-02-23T08:33:54.296Z,99940.00
2023-02-23T08:36:22.367Z,99940.00
2023-02-23T08:38:50.115Z,99939.00
2023-02-23T08:41:17.901Z,99944.00
2023-02-23T08:43:45.391Z,99940.00
2023-02-23T08:46:13.362Z,99935.00
2023-02-23T08:48:40.844Z,99926.00
2023-02-23T08:51:09.121Z,99936.00
2023-02-23T08:53:37.208Z,99942.00
2023-02-23T08:56:06.751Z,99937.00
2023-02-23T08:58:35.619Z,99936.00
2023-02-23T09:01:03.706Z,99932.00
2023-02-23T09:03:31.369Z,99939.00
2023-02-23T09:06:05.648Z,99942.00
2023-02-23T09:08:32.975Z,99941.00
2023-02-23T09:11:00.967Z,99933.00
2023-02-23T09:13:28.316Z,99939.00
2023-02-23T09:15:58.596Z,99935.00
2023-02-23T09:18:27.193Z,99937.00
2023-02-23T09:20:54.911Z,99936.00
2023-02-23T09:23:23.463Z,99940.00
2023-02-23T09:25:50.842Z,99935.00
2023-02-23T09:28:20.099Z,99939.00
2023-02-23T09:30:48.078Z,99944.00
2023-02-23T09:33:16.486Z,99945.00
2023-02-23T09:35:43.751Z,99939.00
2023-02-23T09:38:11.028Z,99943.00
2023-02-23T09:40:48.025Z,99949.00
2023-02-23T09:43:20.819Z,99949.00
2023-02-23T09:45:52.026Z,99947.00
2023-02-23T09:48:21.627Z,99945.00
2023-02-23T09:50:51.624Z,99943.00
2023-02-23T09:53:36.412Z,99941.00
2023-02-23T09:56:10.287Z,99949.00
2023-02-23T09:58:39.464Z,99943.00
2023-02-23T10:01:38.713Z,99943.00
2023-02-23T10:04:12.280Z,99944.00
2023-02-23T10:06:43.313Z,99936.00
2023-02-23T10:09:22.448Z,99941.00
2023-02-23T10:11:55.986Z,99949.00
2023-02-23T10:14:41.414Z,99945.00
2023-02-23T10:17:19.300Z,99948.00
2023-02-23T10:19:53.233Z,99940.00
2023-02-23T10:22:21.457Z,99943.00
2023-02-23T10:24:54.082Z,99947.00
2023-02-23T10:27:27.249Z,99944.00
2023-02-23T10:29:57.923Z,99949.00
2023-02-23T10:32:40.806Z,99952.00
2023-02-23T10:35:12.979Z,99955.00
2023-02-23T10:37:40.315Z,99952.00
2023-02-23T10:40:13.493Z,99949.00
2023-02-23T10:42:40.834Z,99948.00
2023-02-23T10:45:18.035Z,99944.00
2023-02-23T10:47:46.667Z,99948.00
2023-02-23T10:50:14.766Z,99943.00
2023-02-23T10:52:45.179Z,99943.00
2023-02-23T10:55:25.403Z,99943.00
2023-02-23T10:58:09.504Z,99947.00
2023-02-23T11:00:39.036Z,99947.00
2023-02-23T11:03:22.334Z,99941.00
2023-02-23T11:05:52.360Z,99943.00
2023-02-23T11:08:28.581Z,99947.00
2023-02-23T11:11:01.374Z,99925.00
2023-02-23T11:13:33.595Z,99927.00
2023-02-23T11:16:03.829Z,99923.00
2023-02-23T11:18:31.622Z,99919.00
2023-02-23T11:20:59.492Z,99920.00
2023-02-23T11:23:29.245Z,99923.00
2023-02-23T11:26:00.009Z,99921.00
2023-02-23T11:28:31.079Z,99915.00
2023-02-23T11:31:02.901Z,99907.00
2023-02-23T11:33:35.217Z,99911.00
2023-02-23T11:36:17.469Z,99906.00
2023-02-23T11:38:46.100Z,99906.00
2023-02-23T11:41:21.968Z,99911.00
2023-02-23T11:43:50.840Z,99904.00
2023-02-23T11:46:21.795Z,99904.00
2023-02-23T11:48:53.227Z,99905.00
2023-02-23T11:51:26.438Z,99890.00
2023-02-23T11:53:54.295Z,99902.00
2023-02-23T11:56:24.910Z,99896.00
2023-02-23T11:58:55.217Z,99892.00
2023-02-23T12:01:35.175Z,99896.00
2023-02-23T12:04:03.328Z,99886.00
2023-02-23T12:06:33.906Z,99885.00
2023-02-23T12:09:12.425Z,99882.00
2023-02-23T12:11:45.716Z,99876.00
2023-02-23T12:14:26.249Z,99881.00
2023-02-23T12:16:58.474Z,99875.00
2023-02-23T12:19:31.137Z,99887.00
2023-02-23T12:22:03.962Z,99871.00
2023-02-23T12:24:46.894Z,99871.00
2023-02-23T12:27:21.577Z,99875.00
2023-02-23T12:30:02.700Z,99869.00
2023-02-23T12:32:43.920Z,99865.00
2023-02-23T12:35:17.172Z,99866.00
2023-02-23T12:37:50.903Z,99866.00
2023-02-23T12:40:22.679Z,99862.00
2023-02-23T12:43:00.526Z,99856.00
2023-02-23T12:45:35.212Z,99864.00
2023-02-23T12:48:12.041Z,99861.00
2023-02-23T12:50:44.979Z,99854.00
2023-02-23T12:53:21.403Z,99844.00
2023-02-23T12:56:03.605Z,99840.00
2023-02-23T12:58:40.609Z,99838.00
2023-02-23T13:01:12.189Z,99844.00
2023-02-23T13:04:05.975Z,99840.00
2023-02-23T13:06:43.735Z,99844.00
2023-02-23T13:09:25.802Z,99846.00
2023-02-23T13:12:06.336Z,99840.00
2023-02-23T13:14:42.702Z,99846.00
2023-02-23T13:17:26.981Z,99850.00
2023-02-23T13:19:58.796Z,99849.00
2023-02-23T13:22:33.160Z,99849.00
2023-02-23T13:25:05.286Z,99846.00
2023-02-23T13:27:36.299Z,99846.00
2023-02-23T13:30:04.707Z,99842.00
2023-02-23T13:32:33.657Z,99846.00
2023-02-23T13:35:03.011Z,99844.00
2023-02-23T13:37:36.356Z,99841.00
2023-02-23T13:40:30.221Z,99845.00
2023-02-23T13:43:12.935Z,99844.00
2023-02-23T13:46:16.278Z,99843.00
2023-02-23T13:48:57.340Z,99840.00
2023-02-23T13:51:34.696Z,99841.00
2023-02-23T13:54:05.817Z,99845.00
2023-02-23T13:56:40.866Z,99842.00
2023-02-23T13:59:14.954Z,99842.00
2023-02-23T14:01:45.397Z,99845.00
2023-02-23T14:04:15.678Z,99838.00
2023-02-23T14:06:55.775Z,99839.00
2023-02-23T14:09:28.213Z,99840.00
2023-02-23T14:12:16.301Z,99833.00
2023-02-23T14:14:45.546Z,99830.00
2023-02-23T14:17:49.897Z,99830.00
2023-02-23T14:20:29.828Z,99829.00
2023-02-23T14:23:29.295Z,99827.00
2023-02-23T14:26:31.754Z,99825.00
2023-02-23T14:29:21.815Z,99828.00
2023-02-23T14:31:58.058Z,99833.00
2023-02-23T14:34:48.260Z,99828.00
2023-02-23T14:37:24.852Z,99826.00
2023-02-23T14:39:56.105Z,99830.00
2023-02-23T14:42:26.557Z,99831.00
2023-02-23T14:44:55.159Z,99826.00
2023-02-23T14:47:23.686Z,99824.00
2023-02-23T14:49:54.216Z,99832.00
2023-02-23T14:52:24.238Z,99822.00
2023-02-23T14:55:04.293Z,99821.00
2023-02-23T14:57:37.451Z,99825.00
2023-02-23T15:00:12.322Z,99813.00
2023-02-23T15:02:53.690Z,99822.00
2023-02-23T15:05:24.297Z,99826.00
2023-02-23T15:07:54.780Z,99825.00
2023-02-23T15:10:29.739Z,99826.00
2023-02-23T15:12:58.016Z,99817.00
2023-02-23T15:15:26.853Z,99818.00
2023-02-23T15:17:58.104Z,99819.00
2023-02-23T15:20:31.828Z,99819.00
2023-02-23T15:23:01.220Z,99821.00
2023-02-23T15:25:36.621Z,99817.00
2023-02-23T15:28:25.261Z,99812.00
2023-02-23T15:30:54.951Z,99813.00
2023-02-23T15:33:27.837Z,99817.00
2023-02-23T15:35:59.921Z,99812.00
2023-02-23T15:38:43.525Z,99812.00
2023-02-23T15:41:20.544Z,99817.00
2023-02-23T15:43:48.096Z,99812.00
2023-02-23T15:46:23.393Z,99810.00
2023-02-23T15:48:53.257Z,99806.00
2023-02-23T15:51:32.610Z,99817.00
2023-02-23T15:54:02.042Z,99807.00
2023-02-23T15:56:33.972Z,99811.00
2023-02-23T15:59:10.551Z,99812.00
2023-02-23T16:01:42.676Z,99809.00
2023-02-23T16:04:16.689Z,99804.00
2023-02-23T16:06:51.902Z,99804.00
2023-02-23T16:09:27.789Z,99810.00
2023-02-23T16:12:01.018Z,99812.00
2023-02-23T16:14:32.272Z,99812.00
2023-02-23T16:17:10.568Z,99808.00
2023-02-23T16:19:40.305Z,99808.00
2023-02-23T16:22:16.419Z,99804.00
2023-02-23T16:24:43.893Z,99802.00
2023-02-23T16:27:12.238Z,99802.00
2023-02-23T16:29:42.138Z,99801.00
2023-02-23T16:32:18.055Z,99795.00
2023-02-23T16:34:50.142Z,99802.00
2023-02-23T16:37:19.208Z,99808.00
2023-02-23T16:39:47.371Z,99812.00
2023-02-23T16:42:23.243Z,99806.00
2023-02-23T16:44:50.661Z,99818.00
2023-02-23T16:47:35.603Z,99806.00
2023-02-23T16:50:19.259Z,99811.00
2023-02-23T16:52:51.009Z,99811.00
2023-02-23T16:55:19.034Z,99811.00
2023-02-23T16:57:50.096Z,99817.00
2023-02-23T17:00:22.119Z,99809.00
2023-02-23T17:02:50.128Z,99821.00
2023-02-23T17:05:19.630Z,99821.00
2023-02-23T17:07:48.271Z,99818.00
2023-02-23T17:10:24.232Z,99811.00
2023-02-23T17:12:53.921Z,99817.00
2023-02-23T17:15:22.836Z,99823.00
2023-02-23T17:17:52.560Z,99826.00
2023-02-23T17:20:20.822Z,99826.00
2023-02-23T17:22:49.208Z,99823.00
2023-02-23T17:25:16.719Z,99818.00
2023-02-23T17:27:44.127Z,99823.00
2023-02-23T17:30:13.556Z,99822.00
2023-02-23T17:32:41.116Z,99824.00
2023-02-23T17:35:09.267Z,99823.00
2023-02-23T17:37:37.349Z,99824.00
2023-02-23T17:40:06.941Z,99826.00
2023-02-23T17:42:34.454Z,99820.00
2023-02-23T17:45:03.068Z,99821.00
2023-02-23T17:47:32.531Z,99818.00
2023-02-23T17:50:00.969Z,99826.00
2023-02-23T17:52:31.737Z,99810.00
2023-02-23T17:55:00.517Z,99818.00
2023-02-23T17:57:29.956Z,99818.00
2023-02-23T17:59:58.054Z,99820.00
2023-02-23T18:02:26.469Z,99801.00
2023-02-23T18:04:56.266Z,99808.00
2023-02-23T18:07:23.969Z,99805.00
2023-02-23T18:09:51.927Z,99808.00
2023-02-23T18:12:20.208Z,99807.00
2023-02-23T18:14:48.401Z,99806.00
2023-02-23T18:17:16.555Z,99800.00
2023-02-23T18:19:46.899Z,99802.00
2023-02-23T18:22:16.616Z,99801.00
2023-02-23T18:24:44.678Z,99799.00
2023-02-23T18:27:12.865Z,99804.00
2023-02-23T18:29:41.247Z,99805.00
2023-02-23T18:32:11.473Z,99796.00
2023-02-23T18:34:43.242Z,99799.00
2023-02-23T18:37:11.890Z,99795.00
2023-02-23T18:39:47.112Z,99796.00
2023-02-23T18:42:18.530Z,99799.00
2023-02-23T18:44:49.080Z,99793.00
2023-02-23T18:47:16.719Z,99795.00
2023-02-23T18:49:55.933Z,99805.00
2023-02-23T18:52:29.040Z,99803.00
2023-02-23T18:55:17.508Z,99798.00
2023-02-23T19:01:51.380Z,99802.00
2023-02-23T19:14:48.257Z,99791.00
2023-02-23T19:17:56.777Z,99796.00
2023-02-23T19:20:41.059Z,99801.00
2023-02-23T19:26:39.327Z,99795.00
2023-02-23T19:29:22.332Z,99795.00
2023-02-23T19:35:18.073Z,99779.00
2023-02-23T19:38:03.533Z,99780.00
2023-02-23T19:40:59.039Z,99783.00
2023-02-23T19:43:44.787Z,99780.00
2023-02-23T19:46:32.797Z,99776.00
2023-02-23T19:49:21.491Z,99777.00
2023-02-23T19:52:33.791Z,99776.00
2023-02-23T19:55:28.459Z,99768.00
2023-02-23T19:58:29.570Z,99776.00
2023-02-23T20:02:32.250Z,99770.00
2023-02-23T20:06:36.338Z,99776.00
2023-02-23T20:09:32.125Z,99778.00
2023-02-23T20:20:48.315Z,99766.00
2023-02-23T20:31:45.312Z,99762.00
2023-02-23T20:35:17.422Z,99770.00
2023-02-23T20:42:39.508Z,99766.00
2023-02-23T20:52:13.950Z,99763.00
2023-02-23T21:09:28.476Z,99763.00
2023-02-23T21:16:16.698Z,99759.00
2023-02-23T22:30:37.860Z,99732.00
2023-02-23T22:33:16.039Z,99731.00
2023-02-23T22:39:41.505Z,99728.00
2023-02-23T23:00:35.627Z,99715.00
2023-02-23T23:07:03.699Z,99709.00
2023-02-23T23:09:41.031Z,99692.00
2023-02-23T23:12:20.969Z,99704.00
2023-02-23T23:19:25.945Z,99704.00
2023-02-23T23:33:08.909Z,99687.00
2023-02-23T23:35:45.640Z,99684.00
2023-02-23T23:38:42.691Z,99682.00
2023-02-23T23:41:24.304Z,99683.00
2023-02-23T23:43:55.868Z,99686.00
2023-02-23T23:46:25.999Z,99674.00
2023-02-23T23:48:56.308Z,99682.00
2023-02-23T23:51:26.756Z,99682.00
2023-02-23T23:53:55.366Z,99677.00
2023-02-23T23:56:22.626Z,99686.00
2023-02-23T23:58:50.539Z,99673.00
